sensor_id;sensor_type;location;lat;lon;timestamp;pressure;altitude;pressure_sealevel;temperature;humidity
48718;BME280;34521;33.042;-96.586;2024-01-15T00:00:22;100618.31;;;22.23;13.54
48718;BME280;34521;33.042;-96.586;2024-01-15T00:02:48;100609.31;;;22.34;13.50
48718;BME280;34521;33.042;-96.586;2024-01-15T00:05:12;100604.22;;;22.07;13.39
48718;BME280;34521;33.042;-96.586;2024-01-15T00:07:37;100608.03;;;22.12;13.32
48718;BME280;34521;33.042;-96.586;2024-01-15T00:10:04;100607.99;;;21.86;13.72
48718;BME280;34521;33.042;-96.586;2024-01-15T00:12:28;100621.16;;;22.07;13.53
48718;BME280;34521;33.042;-96.586;2024-01-15T00:14:54;100628.46;;;21.72;13.87
48718;BME280;34521;33.042;-96.586;2024-01-15T00:17:19;100625.79;;;21.62;13.77
48718;BME280;34521;33.042;-96.586;2024-01-15T00:19:43;100634.67;;;21.55;13.83
48718;BME280;34521;33.042;-96.586;2024-01-15T00:22:09;100640.41;;;20.65;14.11
48718;BME280;34521;33.042;-96.586;2024-01-15T00:24:36;100641.82;;;21.86;13.46
48718;BME280;34521;33.042;-96.586;2024-01-15T00:26:58;100646.61;;;21.84;13.42
48718;BME280;34521;33.042;-96.586;2024-01-15T00:29:25;100646.50;;;22.13;13.34
48718;BME280;34521;33.042;-96.586;2024-01-15T00:31:50;100642.20;;;22.30;13.25
48718;BME280;34521;33.042;-96.586;2024-01-15T00:34:16;100658.86;;;21.99;13.19
48718;BME280;34521;33.042;-96.586;2024-01-15T00:36:41;100660.63;;;22.54;13.25
48718;BME280;34521;33.042;-96.586;2024-01-15T00:39:05;100668.22;;;22.36;13.31
48718;BME280;34521;33.042;-96.586;2024-01-15T00:41:32;100662.19;;;22.20;13.45
48718;BME280;34521;33.042;-96.586;2024-01-15T00:43:56;100651.58;;;22.28;13.40
48718;BME280;34521;33.042;-96.586;2024-01-15T00:46:22;100654.53;;;21.81;13.62
48718;BME280;34521;33.042;-96.586;2024-01-15T00:48:47;100648.01;;;21.71;13.72
48718;BME280;34521;33.042;-96.586;2024-01-15T00:51:12;100645.89;;;21.64;13.60
48718;BME280;34521;33.042;-96.586;2024-01-15T00:53:38;100652.37;;;20.74;14.00
48718;BME280;34521;33.042;-96.586;2024-01-15T00:56:03;100669.23;;;21.87;13.58
48718;BME280;34521;33.042;-96.586;2024-01-15T00:58:27;100668.44;;;22.06;13.37
48718;BME280;34521;33.042;-96.586;2024-01-15T01:00:53;100659.04;;;22.29;13.24
48718;BME280;34521;33.042;-96.586;2024-01-15T01:03:18;100654.36;;;22.46;13.15
48718;BME280;34521;33.042;-96.586;2024-01-15T01:05:46;100660.16;;;22.50;13.27
48718;BME280;34521;33.042;-96.586;2024-01-15T01:08:08;100675.73;;;22.61;13.28
48718;BME280;34521;33.042;-96.586;2024-01-15T01:10:33;100665.30;;;21.78;13.47
48718;BME280;34521;33.042;-96.586;2024-01-15T01:12:58;100661.34;;;21.74;13.58
48718;BME280;34521;33.042;-96.586;2024-01-15T01:15:23;100658.33;;;21.57;13.63
48718;BME280;34521;33.042;-96.586;2024-01-15T01:17:49;100660.62;;;21.53;13.64
48718;BME280;34521;33.042;-96.586;2024-01-15T01:20:16;100662.37;;;21.91;13.42
48718;BME280;34521;33.042;-96.586;2024-01-15T01:22:41;100667.76;;;22.01;13.33
48718;BME280;34521;33.042;-96.586;2024-01-15T01:25:07;100655.85;;;22.48;13.25
48718;BME280;34521;33.042;-96.586;2024-01-15T01:27:31;100654.81;;;22.93;13.19
48718;BME280;34521;33.042;-96.586;2024-01-15T01:29:57;100658.09;;;22.32;13.62
48718;BME280;34521;33.042;-96.586;2024-01-15T01:32:22;100656.53;;;22.45;13.52
48718;BME280;34521;33.042;-96.586;2024-01-15T01:34:48;100643.86;;;22.67;13.41
48718;BME280;34521;33.042;-96.586;2024-01-15T01:37:14;100646.41;;;23.31;12.75
48718;BME280;34521;33.042;-96.586;2024-01-15T01:39:38;100652.84;;;22.83;13.03
48718;BME280;34521;33.042;-96.586;2024-01-15T01:42:06;100650.73;;;21.72;13.50
48718;BME280;34521;33.042;-96.586;2024-01-15T01:44:29;100660.65;;;20.73;13.74
48718;BME280;34521;33.042;-96.586;2024-01-15T01:46:54;100657.13;;;21.59;13.64
48718;BME280;34521;33.042;-96.586;2024-01-15T01:49:20;100648.64;;;21.29;13.67
48718;BME280;34521;33.042;-96.586;2024-01-15T01:51:44;100659.10;;;21.44;13.68
48718;BME280;34521;33.042;-96.586;2024-01-15T01:54:09;100669.65;;;21.26;13.75
48718;BME280;34521;33.042;-96.586;2024-01-15T01:56:35;100667.73;;;21.56;13.71
48718;BME280;34521;33.042;-96.586;2024-01-15T01:59:00;100649.94;;;21.37;13.76
48718;BME280;34521;33.042;-96.586;2024-01-15T02:01:27;100643.40;;;21.08;14.05
48718;BME280;34521;33.042;-96.586;2024-01-15T02:03:50;100644.41;;;21.05;13.86
48718;BME280;34521;33.042;-96.586;2024-01-15T02:06:17;100635.02;;;20.99;13.86
48718;BME280;34521;33.042;-96.586;2024-01-15T02:08:44;100646.88;;;20.63;13.93
48718;BME280;34521;33.042;-96.586;2024-01-15T02:11:07;100639.66;;;21.41;13.56
48718;BME280;34521;33.042;-96.586;2024-01-15T02:13:32;100649.74;;;21.57;13.50
48718;BME280;34521;33.042;-96.586;2024-01-15T02:15:56;100659.59;;;21.51;13.54
48718;BME280;34521;33.042;-96.586;2024-01-15T02:18:21;100667.32;;;21.66;13.67
48718;BME280;34521;33.042;-96.586;2024-01-15T02:20:49;100660.72;;;21.32;13.80
48718;BME280;34521;33.042;-96.586;2024-01-15T02:23:14;100661.26;;;20.91;13.80
48718;BME280;34521;33.042;-96.586;2024-01-15T02:25:41;100678.75;;;20.80;13.86
48718;BME280;34521;33.042;-96.586;2024-01-15T02:28:05;100678.54;;;20.56;13.80
48718;BME280;34521;33.042;-96.586;2024-01-15T02:30:31;100668.28;;;21.19;13.51
48718;BME280;34521;33.042;-96.586;2024-01-15T02:32:54;100670.43;;;21.11;13.71
48718;BME280;34521;33.042;-96.586;2024-01-15T02:35:21;100669.01;;;21.55;13.47
48718;BME280;34521;33.042;-96.586;2024-01-15T02:37:48;100667.44;;;21.73;13.47
48718;BME280;34521;33.042;-96.586;2024-01-15T02:40:11;100668.90;;;21.74;13.61
48718;BME280;34521;33.042;-96.586;2024-01-15T02:42:37;100677.13;;;21.34;13.83
48718;BME280;34521;33.042;-96.586;2024-01-15T02:45:01;100672.12;;;21.24;13.78
48718;BME280;34521;33.042;-96.586;2024-01-15T02:47:28;100679.94;;;20.43;14.05
48718;BME280;34521;33.042;-96.586;2024-01-15T02:49:54;100677.02;;;20.61;14.04
48718;BME280;34521;33.042;-96.586;2024-01-15T02:52:20;100683.07;;;21.40;13.54
48718;BME280;34521;33.042;-96.586;2024-01-15T02:54:45;100682.69;;;21.66;13.33
48718;BME280;34521;33.042;-96.586;2024-01-15T02:57:09;100686.77;;;21.59;13.52
48718;BME280;34521;33.042;-96.586;2024-01-15T02:59:35;100691.88;;;21.97;13.47
48718;BME280;34521;33.042;-96.586;2024-01-15T03:02:01;100696.18;;;21.60;13.69
48718;BME280;34521;33.042;-96.586;2024-01-15T03:04:25;100695.59;;;21.76;13.54
48718;BME280;34521;33.042;-96.586;2024-01-15T03:13:27;100706.16;;;22.35;12.59
48718;BME280;34521;33.042;-96.586;2024-01-15T03:15:53;100708.48;;;23.15;12.15
48718;BME280;34521;33.042;-96.586;2024-01-15T03:18:17;100706.39;;;22.64;12.15
48718;BME280;34521;33.042;-96.586;2024-01-15T03:20:43;100697.69;;;23.02;12.18
48718;BME280;34521;33.042;-96.586;2024-01-15T03:23:09;100685.01;;;22.73;11.98
48718;BME280;34521;33.042;-96.586;2024-01-15T03:25:35;100704.28;;;22.89;12.14
48718;BME280;34521;33.042;-96.586;2024-01-15T03:27:59;100702.35;;;21.73;13.46
48718;BME280;34521;33.042;-96.586;2024-01-15T03:30:26;100689.29;;;22.99;12.27
48718;BME280;34521;33.042;-96.586;2024-01-15T03:32:52;100694.41;;;22.60;12.26
48718;BME280;34521;33.042;-96.586;2024-01-15T03:35:17;100690.80;;;23.29;12.08
48718;BME280;34521;33.042;-96.586;2024-01-15T03:37:42;100693.35;;;23.25;11.97
48718;BME280;34521;33.042;-96.586;2024-01-15T03:40:08;100696.65;;;23.37;11.85
48718;BME280;34521;33.042;-96.586;2024-01-15T03:42:33;100689.57;;;23.57;11.75
48718;BME280;34521;33.042;-96.586;2024-01-15T03:44:57;100680.68;;;22.96;12.09
48718;BME280;34521;33.042;-96.586;2024-01-15T03:47:22;100689.93;;;22.18;12.52
48718;BME280;34521;33.042;-96.586;2024-01-15T03:49:49;100687.45;;;21.79;12.76
48718;BME280;34521;33.042;-96.586;2024-01-15T03:52:14;100692.36;;;21.47;12.93
48718;BME280;34521;33.042;-96.586;2024-01-15T03:54:40;100685.63;;;20.83;13.08
48718;BME280;34521;33.042;-96.586;2024-01-15T03:57:05;100683.17;;;21.07;13.11
48718;BME280;34521;33.042;-96.586;2024-01-15T03:59:30;100678.71;;;22.06;12.60
48718;BME280;34521;33.042;-96.586;2024-01-15T04:01:55;100684.86;;;22.15;12.50
48718;BME280;34521;33.042;-96.586;2024-01-15T04:04:20;100690.89;;;22.21;12.36
48718;BME280;34521;33.042;-96.586;2024-01-15T04:06:46;100703.77;;;21.45;12.65
48718;BME280;34521;33.042;-96.586;2024-01-15T04:09:11;100701.43;;;21.64;12.58
48718;BME280;34521;33.042;-96.586;2024-01-15T04:11:36;100703.97;;;21.20;12.92
48718;BME280;34521;33.042;-96.586;2024-01-15T04:14:00;100719.50;;;21.79;12.68
48718;BME280;34521;33.042;-96.586;2024-01-15T04:16:26;100722.26;;;22.20;12.33
48718;BME280;34521;33.042;-96.586;2024-01-15T04:18:51;100719.32;;;22.39;12.31
48718;BME280;34521;33.042;-96.586;2024-01-15T04:21:17;100722.94;;;22.29;12.26
48718;BME280;34521;33.042;-96.586;2024-01-15T04:23:41;100722.93;;;21.79;12.55
48718;BME280;34521;33.042;-96.586;2024-01-15T04:26:07;100725.90;;;21.62;12.52
48718;BME280;34521;33.042;-96.586;2024-01-15T04:28:32;100717.30;;;22.43;12.23
48718;BME280;34521;33.042;-96.586;2024-01-15T04:30:57;100726.20;;;22.54;12.13
48718;BME280;34521;33.042;-96.586;2024-01-15T04:33:23;100727.80;;;22.53;12.19
48718;BME280;34521;33.042;-96.586;2024-01-15T04:35:47;100722.20;;;22.34;12.22
48718;BME280;34521;33.042;-96.586;2024-01-15T04:38:14;100734.24;;;22.08;12.31
48718;BME280;34521;33.042;-96.586;2024-01-15T04:40:40;100725.03;;;21.82;12.46
48718;BME280;34521;33.042;-96.586;2024-01-15T04:43:06;100719.10;;;21.06;12.79
48718;BME280;34521;33.042;-96.586;2024-01-15T04:45:29;100714.79;;;22.07;12.26
48718;BME280;34521;33.042;-96.586;2024-01-15T04:47:54;100712.15;;;22.27;12.31
48718;BME280;34521;33.042;-96.586;2024-01-15T04:50:19;100710.83;;;22.52;12.07
48718;BME280;34521;33.042;-96.586;2024-01-15T04:52:45;100714.07;;;22.51;12.12
48718;BME280;34521;33.042;-96.586;2024-01-15T04:55:12;100714.94;;;22.10;12.35
48718;BME280;34521;33.042;-96.586;2024-01-15T04:57:37;100718.51;;;21.87;12.40
48718;BME280;34521;33.042;-96.586;2024-01-15T05:00:02;100719.44;;;22.21;12.27
48718;BME280;34521;33.042;-96.586;2024-01-15T05:02:28;100730.97;;;22.49;12.12
48718;BME280;34521;33.042;-96.586;2024-01-15T05:04:52;100735.58;;;22.38;12.05
48718;BME280;34521;33.042;-96.586;2024-01-15T05:07:19;100731.86;;;22.27;12.24
48718;BME280;34521;33.042;-96.586;2024-01-15T05:09:43;100735.42;;;21.83;12.35
48718;BME280;34521;33.042;-96.586;2024-01-15T05:12:09;100733.84;;;21.62;12.53
48718;BME280;34521;33.042;-96.586;2024-01-15T05:14:35;100732.45;;;21.79;12.50
48718;BME280;34521;33.042;-96.586;2024-01-15T05:17:01;100737.58;;;22.15;12.18
48718;BME280;34521;33.042;-96.586;2024-01-15T05:19:24;100732.06;;;22.64;11.95
48718;BME280;34521;33.042;-96.586;2024-01-15T05:21:49;100724.45;;;22.71;11.92
48718;BME280;34521;33.042;-96.586;2024-01-15T05:24:14;100723.05;;;22.34;12.08
48718;BME280;34521;33.042;-96.586;2024-01-15T05:26:41;100733.89;;;21.82;12.18
48718;BME280;34521;33.042;-96.586;2024-01-15T05:29:07;100727.27;;;21.79;12.39
48718;BME280;34521;33.042;-96.586;2024-01-15T05:31:32;100718.49;;;22.55;12.05
48718;BME280;34521;33.042;-96.586;2024-01-15T05:33:56;100723.64;;;22.63;11.99
48718;BME280;34521;33.042;-96.586;2024-01-15T05:36:22;100719.35;;;22.82;11.85
48718;BME280;34521;33.042;-96.586;2024-01-15T05:38:48;100719.57;;;22.87;11.90
48718;BME280;34521;33.042;-96.586;2024-01-15T05:41:13;100715.20;;;22.42;12.06
48718;BME280;34521;33.042;-96.586;2024-01-15T05:43:38;100722.82;;;22.22;12.12
48718;BME280;34521;33.042;-96.586;2024-01-15T05:46:03;100714.99;;;22.52;12.01
48718;BME280;34521;33.042;-96.586;2024-01-15T05:48:28;100715.24;;;22.77;11.84
48718;BME280;34521;33.042;-96.586;2024-01-15T05:50:54;100721.62;;;22.61;11.89
48718;BME280;34521;33.042;-96.586;2024-01-15T05:53:20;100716.18;;;22.28;12.12
48718;BME280;34521;33.042;-96.586;2024-01-15T05:55:45;100706.99;;;22.09;12.21
48718;BME280;34521;33.042;-96.586;2024-01-15T05:58:10;100688.58;;;22.64;11.98
48718;BME280;34521;33.042;-96.586;2024-01-15T06:00:36;100688.08;;;22.86;11.86
48718;BME280;34521;33.042;-96.586;2024-01-15T06:03:01;100689.17;;;22.63;11.91
48718;BME280;34521;33.042;-96.586;2024-01-15T06:05:25;100676.65;;;22.13;12.15
48718;BME280;34521;33.042;-96.586;2024-01-15T06:07:51;100672.94;;;22.38;12.02
48718;BME280;34521;33.042;-96.586;2024-01-15T06:10:16;100659.03;;;22.70;11.88
48718;BME280;34521;33.042;-96.586;2024-01-15T06:12:42;100659.49;;;22.87;11.73
48718;BME280;34521;33.042;-96.586;2024-01-15T06:15:06;100680.06;;;22.71;11.89
48718;BME280;34521;33.042;-96.586;2024-01-15T06:17:32;100680.95;;;22.29;12.01
48718;BME280;34521;33.042;-96.586;2024-01-15T06:19:57;100679.53;;;22.40;12.10
48718;BME280;34521;33.042;-96.586;2024-01-15T06:22:23;100676.40;;;22.74;11.83
48718;BME280;34521;33.042;-96.586;2024-01-15T06:24:47;100652.23;;;22.83;11.75
48718;BME280;34521;33.042;-96.586;2024-01-15T06:27:14;100661.39;;;22.44;11.96
48718;BME280;34521;33.042;-96.586;2024-01-15T06:29:38;100664.44;;;22.36;11.99
48718;BME280;34521;33.042;-96.586;2024-01-15T06:32:04;100660.56;;;22.85;11.84
48718;BME280;34521;33.042;-96.586;2024-01-15T06:34:28;100675.30;;;22.70;11.84
48718;BME280;34521;33.042;-96.586;2024-01-15T06:36:54;100667.14;;;22.62;11.70
48718;BME280;34521;33.042;-96.586;2024-01-15T06:39:19;100674.62;;;22.90;11.59
48718;BME280;34521;33.042;-96.586;2024-01-15T06:41:44;100673.11;;;22.52;11.87
48718;BME280;34521;33.042;-96.586;2024-01-15T06:44:09;100669.36;;;22.41;11.82
48718;BME280;34521;33.042;-96.586;2024-01-15T06:46:35;100662.83;;;22.27;12.01
48718;BME280;34521;33.042;-96.586;2024-01-15T06:49:01;100662.48;;;22.35;11.92
48718;BME280;34521;33.042;-96.586;2024-01-15T06:51:25;100662.55;;;22.61;11.95
48718;BME280;34521;33.042;-96.586;2024-01-15T06:53:50;100652.65;;;22.81;11.73
48718;BME280;34521;33.042;-96.586;2024-01-15T06:56:15;100645.98;;;22.90;11.75
48718;BME280;34521;33.042;-96.586;2024-01-15T06:58:41;100657.41;;;22.96;11.78
48718;BME280;34521;33.042;-96.586;2024-01-15T07:01:07;100652.35;;;22.54;11.86
48718;BME280;34521;33.042;-96.586;2024-01-15T07:03:33;100624.24;;;22.57;11.92
48718;BME280;34521;33.042;-96.586;2024-01-15T07:05:56;100625.74;;;22.25;12.05
48718;BME280;34521;33.042;-96.586;2024-01-15T07:08:23;100617.70;;;22.50;11.91
48718;BME280;34521;33.042;-96.586;2024-01-15T07:10:47;100620.37;;;22.73;11.77
48718;BME280;34521;33.042;-96.586;2024-01-15T07:13:13;100613.83;;;22.90;11.74
48718;BME280;34521;33.042;-96.586;2024-01-15T07:15:38;100622.61;;;22.70;11.68
48718;BME280;34521;33.042;-96.586;2024-01-15T07:18:03;100629.15;;;22.30;11.93
48718;BME280;34521;33.042;-96.586;2024-01-15T07:20:29;100632.15;;;22.24;11.96
48718;BME280;34521;33.042;-96.586;2024-01-15T07:22:54;100627.03;;;22.12;12.00
48718;BME280;34521;33.042;-96.586;2024-01-15T07:25:20;100622.28;;;22.52;11.81
48718;BME280;34521;33.042;-96.586;2024-01-15T07:27:44;100624.53;;;22.73;11.64
48718;BME280;34521;33.042;-96.586;2024-01-15T07:30:10;100614.29;;;23.00;11.62
48718;BME280;34521;33.042;-96.586;2024-01-15T07:32:35;100622.60;;;22.97;11.62
48718;BME280;34521;33.042;-96.586;2024-01-15T07:35:00;100620.26;;;22.53;11.91
48718;BME280;34521;33.042;-96.586;2024-01-15T07:37:26;100602.48;;;22.56;11.89
48718;BME280;34521;33.042;-96.586;2024-01-15T07:39:50;100616.61;;;21.56;12.20
48718;BME280;34521;33.042;-96.586;2024-01-15T07:42:15;100602.65;;;22.61;11.87
48718;BME280;34521;33.042;-96.586;2024-01-15T07:44:41;100612.61;;;22.81;11.81
48718;BME280;34521;33.042;-96.586;2024-01-15T07:47:06;100618.41;;;22.70;11.62
48718;BME280;34521;33.042;-96.586;2024-01-15T07:49:31;100616.01;;;22.57;11.73
48718;BME280;34521;33.042;-96.586;2024-01-15T07:51:56;100622.54;;;22.42;11.84
48718;BME280;34521;33.042;-96.586;2024-01-15T07:54:21;100639.64;;;22.57;11.68
48718;BME280;34521;33.042;-96.586;2024-01-15T07:56:56;100635.52;;;22.64;11.65
48718;BME280;34521;33.042;-96.586;2024-01-15T07:59:13;100635.12;;;22.70;11.65
48718;BME280;34521;33.042;-96.586;2024-01-15T08:01:38;100649.59;;;22.46;11.74
48718;BME280;34521;33.042;-96.586;2024-01-15T08:04:02;100643.86;;;22.61;11.92
48718;BME280;34521;33.042;-96.586;2024-01-15T08:06:28;100641.98;;;21.65;12.21
48718;BME280;34521;33.042;-96.586;2024-01-15T08:08:54;100637.10;;;22.62;11.76
48718;BME280;34521;33.042;-96.586;2024-01-15T08:11:20;100632.14;;;22.98;11.68
48718;BME280;34521;33.042;-96.586;2024-01-15T08:13:45;100629.40;;;22.96;11.68
48718;BME280;34521;33.042;-96.586;2024-01-15T08:16:12;100624.77;;;23.05;11.47
48718;BME280;34521;33.042;-96.586;2024-01-15T08:18:37;100625.89;;;22.58;11.63
48718;BME280;34521;33.042;-96.586;2024-01-15T08:21:01;100613.60;;;22.69;11.71
48718;BME280;34521;33.042;-96.586;2024-01-15T08:23:26;100594.85;;;22.50;11.70
48718;BME280;34521;33.042;-96.586;2024-01-15T08:25:52;100592.14;;;22.05;11.97
48718;BME280;34521;33.042;-96.586;2024-01-15T08:28:17;100593.80;;;22.65;11.73
48718;BME280;34521;33.042;-96.586;2024-01-15T08:30:43;100610.30;;;22.76;11.62
48718;BME280;34521;33.042;-96.586;2024-01-15T08:33:09;100609.67;;;22.98;11.58
48718;BME280;34521;33.042;-96.586;2024-01-15T08:35:34;100606.30;;;23.01;11.50
48718;BME280;34521;33.042;-96.586;2024-01-15T08:37:58;100601.90;;;22.29;11.82
48718;BME280;34521;33.042;-96.586;2024-01-15T08:40:25;100603.17;;;22.56;11.82
48718;BME280;34521;33.042;-96.586;2024-01-15T08:42:49;100601.07;;;22.36;11.92
48718;BME280;34521;33.042;-96.586;2024-01-15T08:45:15;100614.38;;;22.30;11.99
48718;BME280;34521;33.042;-96.586;2024-01-15T08:47:41;100619.09;;;22.65;11.71
48718;BME280;34521;33.042;-96.586;2024-01-15T08:50:07;100614.36;;;22.95;11.70
48718;BME280;34521;33.042;-96.586;2024-01-15T08:52:32;100609.10;;;22.97;11.58
48718;BME280;34521;33.042;-96.586;2024-01-15T08:54:57;100597.99;;;22.56;11.72
48718;BME280;34521;33.042;-96.586;2024-01-15T08:57:21;100603.34;;;22.51;11.69
48718;BME280;34521;33.042;-96.586;2024-01-15T08:59:48;100601.52;;;22.05;11.92
48718;BME280;34521;33.042;-96.586;2024-01-15T09:02:13;100593.89;;;22.67;11.69
48718;BME280;34521;33.042;-96.586;2024-01-15T09:04:38;100595.64;;;22.92;11.52
48718;BME280;34521;33.042;-96.586;2024-01-15T09:07:04;100589.64;;;23.00;11.52
48718;BME280;34521;33.042;-96.586;2024-01-15T09:09:29;100584.11;;;22.69;11.58
48718;BME280;34521;33.042;-96.586;2024-01-15T09:11:54;100594.29;;;22.63;11.69
48718;BME280;34521;33.042;-96.586;2024-01-15T09:14:21;100592.79;;;22.61;11.71
48718;BME280;34521;33.042;-96.586;2024-01-15T09:16:46;100591.57;;;22.72;11.65
48718;BME280;34521;33.042;-96.586;2024-01-15T09:19:11;100599.72;;;22.82;11.52
48718;BME280;34521;33.042;-96.586;2024-01-15T09:21:40;100625.58;;;22.34;11.66
48718;BME280;34521;33.042;-96.586;2024-01-15T09:24:04;100625.60;;;22.45;11.59
48718;BME280;34521;33.042;-96.586;2024-01-15T09:26:28;100623.57;;;22.69;11.74
48718;BME280;34521;33.042;-96.586;2024-01-15T09:28:52;100633.81;;;22.84;11.61
48718;BME280;34521;33.042;-96.586;2024-01-15T09:31:18;100634.34;;;22.61;11.50
48718;BME280;34521;33.042;-96.586;2024-01-15T09:33:44;100621.16;;;22.54;11.71
48718;BME280;34521;33.042;-96.586;2024-01-15T09:36:10;100626.78;;;22.32;11.77
48718;BME280;34521;33.042;-96.586;2024-01-15T09:38:35;100614.03;;;22.59;11.86
48718;BME280;34521;33.042;-96.586;2024-01-15T09:41:00;100638.39;;;22.81;11.60
48718;BME280;34521;33.042;-96.586;2024-01-15T09:43:25;100650.67;;;22.94;11.59
48718;BME280;34521;33.042;-96.586;2024-01-15T09:45:51;100652.15;;;22.69;11.73
48718;BME280;34521;33.042;-96.586;2024-01-15T09:48:17;100646.90;;;22.42;11.75
48718;BME280;34521;33.042;-96.586;2024-01-15T09:50:42;100635.04;;;22.82;11.52
48718;BME280;34521;33.042;-96.586;2024-01-15T09:53:07;100636.67;;;23.00;11.45
48718;BME280;34521;33.042;-96.586;2024-01-15T09:55:32;100646.86;;;22.71;11.43
48718;BME280;34521;33.042;-96.586;2024-01-15T09:57:58;100623.70;;;22.51;11.60
48718;BME280;34521;33.042;-96.586;2024-01-15T10:00:24;100627.82;;;22.46;11.70
48718;BME280;34521;33.042;-96.586;2024-01-15T10:02:48;100636.31;;;22.27;11.89
48718;BME280;34521;33.042;-96.586;2024-01-15T10:05:13;100615.90;;;22.46;11.65
48718;BME280;34521;33.042;-96.586;2024-01-15T10:07:39;100628.28;;;22.80;11.45
48718;BME280;34521;33.042;-96.586;2024-01-15T10:10:04;100624.88;;;23.10;11.50
48718;BME280;34521;33.042;-96.586;2024-01-15T10:12:29;100624.56;;;22.80;11.62
48718;BME280;34521;33.042;-96.586;2024-01-15T10:14:55;100614.66;;;22.41;11.59
48718;BME280;34521;33.042;-96.586;2024-01-15T10:17:20;100628.23;;;22.39;11.65
48718;BME280;34521;33.042;-96.586;2024-01-15T10:19:47;100619.98;;;21.47;11.95
48718;BME280;34521;33.042;-96.586;2024-01-15T10:22:10;100610.08;;;22.58;11.68
48718;BME280;34521;33.042;-96.586;2024-01-15T10:24:36;100605.82;;;22.69;11.44
48718;BME280;34521;33.042;-96.586;2024-01-15T10:27:07;100609.00;;;22.86;11.44
48718;BME280;34521;33.042;-96.586;2024-01-15T10:29:26;100620.19;;;22.98;11.39
48718;BME280;34521;33.042;-96.586;2024-01-15T10:31:52;100615.82;;;22.46;11.52
48718;BME280;34521;33.042;-96.586;2024-01-15T10:34:18;100620.04;;;22.48;11.62
48718;BME280;34521;33.042;-96.586;2024-01-15T10:36:46;100616.92;;;22.54;11.64
48718;BME280;34521;33.042;-96.586;2024-01-15T10:39:09;100621.38;;;22.15;11.78
48718;BME280;34521;33.042;-96.586;2024-01-15T10:41:34;100629.47;;;22.62;11.55
48718;BME280;34521;33.042;-96.586;2024-01-15T10:43:59;100626.05;;;22.66;11.53
48718;BME280;34521;33.042;-96.586;2024-01-15T10:46:25;100623.12;;;22.89;11.55
48718;BME280;34521;33.042;-96.586;2024-01-15T10:48:50;100626.58;;;22.69;11.58
48718;BME280;34521;33.042;-96.586;2024-01-15T10:51:14;100632.99;;;22.17;11.75
48718;BME280;34521;33.042;-96.586;2024-01-15T10:53:40;100634.02;;;22.79;11.47
48718;BME280;34521;33.042;-96.586;2024-01-15T10:56:08;100634.43;;;22.87;11.46
48718;BME280;34521;33.042;-96.586;2024-01-15T10:58:32;100634.31;;;23.01;11.41
48718;BME280;34521;33.042;-96.586;2024-01-15T11:00:58;100624.98;;;23.04;11.38
48718;BME280;34521;33.042;-96.586;2024-01-15T11:03:21;100626.23;;;22.59;11.58
48718;BME280;34521;33.042;-96.586;2024-01-15T11:05:47;100619.70;;;22.44;11.64
48718;BME280;34521;33.042;-96.586;2024-01-15T11:08:12;100630.60;;;22.07;11.71
48718;BME280;34521;33.042;-96.586;2024-01-15T11:10:41;100626.97;;;22.43;11.53
48718;BME280;34521;33.042;-96.586;2024-01-15T11:13:04;100629.75;;;22.76;11.43
48718;BME280;34521;33.042;-96.586;2024-01-15T11:15:28;100620.41;;;22.85;11.39
48718;BME280;34521;33.042;-96.586;2024-01-15T11:18:01;100615.18;;;22.43;11.56
48718;BME280;34521;33.042;-96.586;2024-01-15T11:20:18;100629.06;;;22.03;11.84
48718;BME280;34521;33.042;-96.586;2024-01-15T11:22:49;100617.39;;;22.72;11.61
48718;BME280;34521;33.042;-96.586;2024-01-15T11:25:14;100611.57;;;22.72;11.48
48718;BME280;34521;33.042;-96.586;2024-01-15T11:27:41;100612.34;;;23.07;11.45
48718;BME280;34521;33.042;-96.586;2024-01-15T11:30:06;100606.01;;;23.00;11.33
48718;BME280;34521;33.042;-96.586;2024-01-15T11:32:33;100598.93;;;22.52;11.55
48718;BME280;34521;33.042;-96.586;2024-01-15T11:34:53;100598.09;;;22.78;11.46
48718;BME280;34521;33.042;-96.586;2024-01-15T11:37:15;100591.51;;;22.77;11.52
48718;BME280;34521;33.042;-96.586;2024-01-15T11:39:41;100596.13;;;22.92;11.37
48718;BME280;34521;33.042;-96.586;2024-01-15T11:42:07;100594.38;;;23.03;11.41
48718;BME280;34521;33.042;-96.586;2024-01-15T11:44:31;100592.21;;;22.65;11.44
48718;BME280;34521;33.042;-96.586;2024-01-15T11:47:00;100590.10;;;22.53;11.58
48718;BME280;34521;33.042;-96.586;2024-01-15T11:49:31;100594.40;;;22.50;11.49
48718;BME280;34521;33.042;-96.586;2024-01-15T11:51:50;100599.08;;;22.80;11.44
48718;BME280;34521;33.042;-96.586;2024-01-15T11:54:13;100608.63;;;22.71;11.33
48718;BME280;34521;33.042;-96.586;2024-01-15T11:56:38;100613.57;;;22.78;11.43
48718;BME280;34521;33.042;-96.586;2024-01-15T11:59:03;100614.21;;;22.73;11.30
48718;BME280;34521;33.042;-96.586;2024-01-15T12:01:30;100611.06;;;23.10;11.26
48718;BME280;34521;33.042;-96.586;2024-01-15T12:03:56;100612.04;;;23.27;11.24
48718;BME280;34521;33.042;-96.586;2024-01-15T12:06:20;100609.15;;;23.33;11.20
48718;BME280;34521;33.042;-96.586;2024-01-15T12:08:44;100609.44;;;23.10;11.18
48718;BME280;34521;33.042;-96.586;2024-01-15T12:11:14;100614.69;;;23.11;11.11
48718;BME280;34521;33.042;-96.586;2024-01-15T12:13:38;100623.80;;;23.57;11.16
48718;BME280;34521;33.042;-96.586;2024-01-15T12:16:03;100624.17;;;23.54;10.96
48718;BME280;34521;33.042;-96.586;2024-01-15T12:18:27;100619.94;;;23.93;11.06
48718;BME280;34521;33.042;-96.586;2024-01-15T12:20:54;100625.80;;;23.94;10.89
48718;BME280;34521;33.042;-96.586;2024-01-15T12:23:18;100628.09;;;24.03;11.10
48718;BME280;34521;33.042;-96.586;2024-01-15T12:25:43;100631.40;;;24.50;10.94